sensor_id;sensor_type;location;lat;lon;timestamp;pressure;altitude;pressure_sealevel;temperature;humidity
39699;BME280;25372;50.582;12.250;2022-08-19T00:07:39;99012.22;;;20.70;85.05
39699;BME280;25372;50.582;12.250;2022-08-19T00:18:00;99022.44;;;20.58;85.98
39699;BME280;25372;50.582;12.250;2022-08-19T00:28:23;99042.91;;;20.54;86.81
39699;BME280;25372;50.582;12.250;2022-08-19T00:38:43;99057.16;;;20.54;86.71
39699;BME280;25372;50.582;12.250;2022-08-19T00:49:09;99045.31;;;20.50;87.23
39699;BME280;25372;50.582;12.250;2022-08-19T00:59:35;99040.19;;;20.38;88.00
39699;BME280;25372;50.582;12.250;2022-08-19T01:09:59;99040.47;;;20.42;88.12
39699;BME280;25372;50.582;12.250;2022-08-19T01:20:23;99051.22;;;20.42;88.47
39699;BME280;25372;50.582;12.250;2022-08-19T01:30:46;99069.00;;;20.48;88.93
39699;BME280;25372;50.582;12.250;2022-08-19T01:41:08;99042.34;;;20.47;88.94
39699;BME280;25372;50.582;12.250;2022-08-19T01:51:30;99051.22;;;20.42;89.91
39699;BME280;25372;50.582;12.250;2022-08-19T02:01:51;99067.66;;;20.56;89.74
39699;BME280;25372;50.582;12.250;2022-08-19T02:12:14;99035.09;;;20.42;90.45
39699;BME280;25372;50.582;12.250;2022-08-19T02:22:35;99031.31;;;20.43;90.95
39699;BME280;25372;50.582;12.250;2022-08-19T02:32:57;99064.44;;;20.54;90.13
39699;BME280;25372;50.582;12.250;2022-08-19T02:43:19;99050.72;;;20.50;90.87
39699;BME280;25372;50.582;12.250;2022-08-19T02:53:42;99047.47;;;20.43;91.64
39699;BME280;25372;50.582;12.250;2022-08-19T03:04:05;99062.78;;;20.43;91.57
39699;BME280;25372;50.582;12.250;2022-08-19T03:14:29;99057.97;;;20.45;91.44
39699;BME280;25372;50.582;12.250;2022-08-19T03:24:50;99053.91;;;20.37;91.92
39699;BME280;25372;50.582;12.250;2022-08-19T03:35:13;99061.69;;;20.28;92.32
39699;BME280;25372;50.582;12.250;2022-08-19T03:45:33;99070.34;;;20.51;91.30
39699;BME280;25372;50.582;12.250;2022-08-19T03:55:56;99076.00;;;20.39;91.72
39699;BME280;25372;50.582;12.250;2022-08-19T04:06:19;99051.22;;;20.37;90.78
39699;BME280;25372;50.582;12.250;2022-08-19T04:16:43;99066.81;;;20.40;91.31
39699;BME280;25372;50.582;12.250;2022-08-19T04:27:05;99056.06;;;20.45;91.46
39699;BME280;25372;50.582;12.250;2022-08-19T04:37:27;99065.50;;;20.53;90.16
39699;BME280;25372;50.582;12.250;2022-08-19T04:47:54;99086.47;;;20.46;90.96
39699;BME280;25372;50.582;12.250;2022-08-19T04:58:18;99082.47;;;20.43;90.75
39699;BME280;25372;50.582;12.250;2022-08-19T05:08:40;99077.34;;;20.42;90.66
39699;BME280;25372;50.582;12.250;2022-08-19T05:19:03;99087.28;;;20.26;91.82
39699;BME280;25372;50.582;12.250;2022-08-19T05:29:42;99110.97;;;20.34;91.15
39699;BME280;25372;50.582;12.250;2022-08-19T05:40:05;99135.16;;;20.24;91.81
39699;BME280;25372;50.582;12.250;2022-08-19T05:50:26;99166.06;;;20.21;91.82
39699;BME280;25372;50.582;12.250;2022-08-19T06:00:48;99188.69;;;20.25;90.53
39699;BME280;25372;50.582;12.250;2022-08-19T06:11:15;99197.63;;;20.36;89.64
39699;BME280;25372;50.582;12.250;2022-08-19T06:21:40;99234.53;;;20.46;88.62
39699;BME280;25372;50.582;12.250;2022-08-19T06:32:02;99241.81;;;20.45;89.02
39699;BME280;25372;50.582;12.250;2022-08-19T06:42:25;99239.94;;;20.51;88.64
39699;BME280;25372;50.582;12.250;2022-08-19T06:52:46;99262.81;;;20.48;88.89
39699;BME280;25372;50.582;12.250;2022-08-19T07:03:08;99284.50;;;20.31;91.74
39699;BME280;25372;50.582;12.250;2022-08-19T07:13:29;99256.44;;;20.12;95.40
39699;BME280;25372;50.582;12.250;2022-08-19T07:23:59;99269.53;;;19.98;97.10
39699;BME280;25372;50.582;12.250;2022-08-19T07:34:19;99290.78;;;19.94;98.33
39699;BME280;25372;50.582;12.250;2022-08-19T07:44:42;99311.84;;;19.75;100.00
39699;BME280;25372;50.582;12.250;2022-08-19T07:55:03;99300.50;;;19.68;100.00
39699;BME280;25372;50.582;12.250;2022-08-19T08:05:26;99304.44;;;19.88;100.00
39699;BME280;25372;50.582;12.250;2022-08-19T08:16:04;99319.00;;;19.92;100.00
39699;BME280;25372;50.582;12.250;2022-08-19T08:26:27;99318.22;;;20.44;100.00
39699;BME280;25372;50.582;12.250;2022-08-19T08:36:48;99313.19;;;20.58;99.32
39699;BME280;25372;50.582;12.250;2022-08-19T08:47:15;99341.88;;;20.37;99.90
39699;BME280;25372;50.582;12.250;2022-08-19T08:57:40;99336.06;;;21.19;95.98
39699;BME280;25372;50.582;12.250;2022-08-19T09:08:10;99330.44;;;22.03;90.51
39699;BME280;25372;50.582;12.250;2022-08-19T09:18:40;99342.56;;;22.31;84.65
39699;BME280;25372;50.582;12.250;2022-08-19T09:29:02;99320.91;;;22.57;84.06
39699;BME280;25372;50.582;12.250;2022-08-19T09:39:25;99302.09;;;22.21;83.88
39699;BME280;25372;50.582;12.250;2022-08-19T09:49:47;99299.91;;;23.43;81.51
39699;BME280;25372;50.582;12.250;2022-08-19T10:00:10;99309.50;;;23.65;76.95
39699;BME280;25372;50.582;12.250;2022-08-19T10:10:35;99321.31;;;22.90;79.45
39699;BME280;25372;50.582;12.250;2022-08-19T10:21:04;99308.47;;;24.19;75.36
39699;BME280;25372;50.582;12.250;2022-08-19T10:31:31;99314.97;;;24.43;70.93
39699;BME280;25372;50.582;12.250;2022-08-19T10:41:52;99331.13;;;23.25;77.62
39699;BME280;25372;50.582;12.250;2022-08-19T10:52:14;99337.50;;;24.86;71.61
39699;BME280;25372;50.582;12.250;2022-08-19T11:02:53;99351.31;;;24.66;70.04
39699;BME280;25372;50.582;12.250;2022-08-19T11:13:16;99353.34;;;23.96;72.65
39699;BME280;25372;50.582;12.250;2022-08-19T11:23:37;99370.09;;;23.19;77.32
39699;BME280;25372;50.582;12.250;2022-08-19T11:34:03;99372.44;;;23.36;77.34
39699;BME280;25372;50.582;12.250;2022-08-19T11:44:24;99363.09;;;23.97;72.37
39699;BME280;25372;50.582;12.250;2022-08-19T11:54:46;99357.94;;;23.17;76.32
39699;BME280;25372;50.582;12.250;2022-08-19T12:05:07;99383.72;;;22.88;77.58
39699;BME280;25372;50.582;12.250;2022-08-19T12:15:30;99398.63;;;22.80;77.73
39699;BME280;25372;50.582;12.250;2022-08-19T12:25:51;99406.97;;;22.89;76.83
39699;BME280;25372;50.582;12.250;2022-08-19T12:36:14;99406.75;;;22.70;77.19
39699;BME280;25372;50.582;12.250;2022-08-19T12:46:36;99404.84;;;22.76;77.06
39699;BME280;25372;50.582;12.250;2022-08-19T12:56:58;99408.69;;;22.44;77.62
39699;BME280;25372;50.582;12.250;2022-08-19T13:07:20;99410.00;;;22.72;76.10
39699;BME280;25372;50.582;12.250;2022-08-19T13:17:42;99400.00;;;22.68;76.45
39699;BME280;25372;50.582;12.250;2022-08-19T13:28:03;99402.66;;;22.83;76.67
39699;BME280;25372;50.582;12.250;2022-08-19T13:38:27;99388.47;;;21.80;81.09
39699;BME280;25372;50.582;12.250;2022-08-19T13:48:49;99402.91;;;21.37;83.26
39699;BME280;25372;50.582;12.250;2022-08-19T13:59:12;99391.69;;;21.87;82.35
39699;BME280;25372;50.582;12.250;2022-08-19T14:09:33;99404.91;;;22.24;80.13
39699;BME280;25372;50.582;12.250;2022-08-19T14:19:57;99407.59;;;21.78;81.77
39699;BME280;25372;50.582;12.250;2022-08-19T14:30:21;99415.69;;;21.78;80.82
39699;BME280;25372;50.582;12.250;2022-08-19T14:40:44;99415.44;;;21.64;82.46
39699;BME280;25372;50.582;12.250;2022-08-19T14:51:05;99418.84;;;21.49;82.40
39699;BME280;25372;50.582;12.250;2022-08-19T15:01:27;99412.47;;;21.86;81.34
39699;BME280;25372;50.582;12.250;2022-08-19T15:11:48;99404.63;;;22.26;79.46
39699;BME280;25372;50.582;12.250;2022-08-19T15:22:11;99416.25;;;21.75;79.98
39699;BME280;25372;50.582;12.250;2022-08-19T15:32:33;99425.66;;;21.57;80.62
39699;BME280;25372;50.582;12.250;2022-08-19T15:42:56;99400.81;;;21.50;80.25
39699;BME280;25372;50.582;12.250;2022-08-19T15:53:17;99384.13;;;21.63;80.00
39699;BME280;25372;50.582;12.250;2022-08-19T16:03:39;99381.72;;;21.77;78.19
39699;BME280;25372;50.582;12.250;2022-08-19T16:14:18;99380.94;;;21.82;78.58
39699;BME280;25372;50.582;12.250;2022-08-19T16:24:42;99395.44;;;21.65;79.68
39699;BME280;25372;50.582;12.250;2022-08-19T16:35:04;99382.25;;;21.58;79.94
39699;BME280;25372;50.582;12.250;2022-08-19T16:45:26;99356.38;;;21.52;78.40
39699;BME280;25372;50.582;12.250;2022-08-19T16:55:47;99352.03;;;21.62;77.63
39699;BME280;25372;50.582;12.250;2022-08-19T17:06:15;99359.81;;;21.32;80.02
39699;BME280;25372;50.582;12.250;2022-08-19T17:16:36;99368.91;;;21.16;81.17
39699;BME280;25372;50.582;12.250;2022-08-19T17:26:59;99358.31;;;20.88;81.77
39699;BME280;25372;50.582;12.250;2022-08-19T17:37:21;99379.88;;;20.88;81.95
39699;BME280;25372;50.582;12.250;2022-08-19T17:47:43;99380.41;;;20.90;82.35
39699;BME280;25372;50.582;12.250;2022-08-19T17:58:03;99428.84;;;20.75;83.84
39699;BME280;25372;50.582;12.250;2022-08-19T18:08:25;99435.72;;;20.66;84.35
39699;BME280;25372;50.582;12.250;2022-08-19T18:18:47;99478.19;;;20.53;84.60
39699;BME280;25372;50.582;12.250;2022-08-19T18:29:10;99506.53;;;20.61;85.14
39699;BME280;25372;50.582;12.250;2022-08-19T18:39:32;99511.06;;;20.55;85.21
39699;BME280;25372;50.582;12.250;2022-08-19T18:50:11;99494.69;;;20.62;85.05
39699;BME280;25372;50.582;12.250;2022-08-19T19:00:36;99495.59;;;20.41;85.25
39699;BME280;25372;50.582;12.250;2022-08-19T19:11:00;99489.88;;;20.32;85.53
39699;BME280;25372;50.582;12.250;2022-08-19T19:21:24;99481.81;;;20.37;85.67
39699;BME280;25372;50.582;12.250;2022-08-19T19:31:47;99481.50;;;20.28;85.86
39699;BME280;25372;50.582;12.250;2022-08-19T19:42:10;99485.72;;;20.19;84.69
39699;BME280;25372;50.582;12.250;2022-08-19T19:52:33;99497.28;;;20.19;85.11
39699;BME280;25372;50.582;12.250;2022-08-19T20:02:54;99467.00;;;20.02;85.53
39699;BME280;25372;50.582;12.250;2022-08-19T20:13:15;99472.44;;;20.07;84.96
39699;BME280;25372;50.582;12.250;2022-08-19T20:23:36;99522.44;;;20.03;85.14
39699;BME280;25372;50.582;12.250;2022-08-19T20:33:59;99503.59;;;20.03;85.00
39699;BME280;25372;50.582;12.250;2022-08-19T20:44:20;99506.84;;;20.05;85.74
39699;BME280;25372;50.582;12.250;2022-08-19T20:54:43;99508.44;;;20.01;85.29
39699;BME280;25372;50.582;12.250;2022-08-19T21:05:05;99491.69;;;19.94;85.00
39699;BME280;25372;50.582;12.250;2022-08-19T21:15:27;99494.88;;;19.91;85.18
39699;BME280;25372;50.582;12.250;2022-08-19T21:25:50;99497.13;;;19.77;86.69
39699;BME280;25372;50.582;12.250;2022-08-19T21:36:12;99507.66;;;19.78;86.36
39699;BME280;25372;50.582;12.250;2022-08-19T21:46:34;99498.44;;;19.74;86.28
39699;BME280;25372;50.582;12.250;2022-08-19T21:56:57;99475.91;;;19.53;87.42
39699;BME280;25372;50.582;12.250;2022-08-19T22:07:20;99489.84;;;19.77;87.23
39699;BME280;25372;50.582;12.250;2022-08-19T22:17:43;99484.59;;;19.60;87.23
39699;BME280;25372;50.582;12.250;2022-08-19T22:28:06;99510.41;;;19.83;86.79
39699;BME280;25372;50.582;12.250;2022-08-19T22:38:28;99446.13;;;19.60;86.81
39699;BME280;25372;50.582;12.250;2022-08-19T22:48:50;99503.06;;;19.79;86.86
39699;BME280;25372;50.582;12.250;2022-08-19T22:59:11;99524.00;;;19.77;87.78
39699;BME280;25372;50.582;12.250;2022-08-19T23:09:32;99497.38;;;19.75;87.22
39699;BME280;25372;50.582;12.250;2022-08-19T23:19:59;99496.69;;;19.63;87.71
39699;BME280;25372;50.582;12.250;2022-08-19T23:30:20;99487.94;;;19.73;86.96
39699;BME280;25372;50.582;12.250;2022-08-19T23:40:49;99473.50;;;19.57;87.72
39699;BME280;25372;50.582;12.250;2022-08-19T23:51:11;99472.09;;;19.49;88.47
